Double Springs, Alabama
Current Conditions -  °F | °C
As of 6:56 AM on Thursday 27 Nov 2014 (Local Time) from K1M4 Reporting Station
Broken Clouds Broken Clouds  
Wind Chill: 35°   Ceiling: 3600
Heat Index: 35°   Visibility: 10mi
Dew Point: 32°   Wind: 3mph
Humidity: 89%   Direction: 310°NW
Pressure: 30.33"   Gusts: NA
Location:  34.15°N, 87.4°W
Report Text: K1M4 271256Z AUTO 31003KT 10SM FEW019 BKN036 02/00 A3033 RMK AO2 T00160000 SLP280
Loading
Personal Weather Stations






























Interactive Weather Map New forecast layout! Learn more

10-Day Weather Forecast

Advertisements
Track Severe Weather on mobile